Time;durP1;ratioP1;P1;durP2;ratioP2;P2;SDS_P1;SDS_P2;PMS_P1;PMS_P2;Temp;Humidity;BMP_temperature;BMP_pressure;BME280_temperature;BME280_humidity;BME280_pressure;Samples;Min_cycle;Max_cycle;Signal;HPM_P1;HPM_P2
2023/03/05 00:00:07;;;;;;;12.97;7.77;;;6.30;99.90;;;;;;4919846;29;21060;-69
2023/03/05 00:02:39;;;;;;;12.80;7.57;;;6.30;99.90;;;;;;4923058;28;20459;-68
2023/03/05 00:05:05;;;;;;;10.80;7.60;;;6.30;99.90;;;;;;4923611;28;20876;-69
2023/03/05 00:07:31;;;;;;;13.50;8.07;;;6.30;99.90;;;;;;4920914;28;20266;-69
2023/03/05 00:10:00;;;;;;;15.10;8.37;;;6.40;99.90;;;;;;4915087;29;20472;-69
2023/03/05 00:12:26;;;;;;;18.63;7.77;;;6.40;99.90;;;;;;4925482;28;20226;-69
2023/03/05 00:14:52;;;;;;;18.87;8.67;;;6.40;99.90;;;;;;4922773;28;20463;-69
2023/03/05 00:17:18;;;;;;;12.70;8.27;;;6.40;99.90;;;;;;4911317;28;20324;-71
2023/03/05 00:19:43;;;;;;;13.63;9.20;;;6.40;99.90;;;;;;4924415;29;20227;-69
2023/03/05 00:22:09;;;;;;;13.40;8.77;;;6.40;99.90;;;;;;4917750;29;20223;-68
2023/03/05 00:24:35;;;;;;;20.80;9.77;;;6.40;99.90;;;;;;4905139;29;20233;-68
2023/03/05 00:27:00;;;;;;;14.00;8.53;;;6.40;99.90;;;;;;4922051;29;20347;-68
2023/03/05 00:29:27;;;;;;;15.43;9.30;;;6.30;99.90;;;;;;4922337;28;20686;-68
2023/03/05 00:31:53;;;;;;;15.30;9.17;;;6.30;99.90;;;;;;4921390;28;20221;-68
2023/03/05 00:34:19;;;;;;;16.13;9.47;;;6.30;99.90;;;;;;4916022;29;20467;-70
2023/03/05 00:36:48;;;;;;;11.30;8.03;;;6.30;99.90;;;;;;4926165;28;20465;-69
2023/03/05 00:39:16;;;;;;;16.33;9.37;;;6.30;99.90;;;;;;4918610;29;20486;-70
2023/03/05 00:41:42;;;;;;;16.90;9.37;;;6.30;99.90;;;;;;4917062;29;20545;-69
2023/03/05 00:44:08;;;;;;;15.50;9.67;;;6.30;99.90;;;;;;4921373;29;20493;-69
2023/03/05 00:46:33;;;;;;;13.97;8.47;;;6.40;99.90;;;;;;4918050;28;20464;-69
2023/03/05 00:48:59;;;;;;;15.93;9.00;;;6.40;99.90;;;;;;4907134;29;20274;-67
2023/03/05 00:51:25;;;;;;;15.87;9.40;;;6.40;99.90;;;;;;4919027;29;20289;-68
2023/03/05 00:53:51;;;;;;;19.57;10.30;;;6.30;99.90;;;;;;4926772;28;20226;-70
2023/03/05 00:56:17;;;;;;;17.83;11.67;;;6.40;99.90;;;;;;4902481;29;20219;-69
2023/03/05 00:58:42;;;;;;;20.50;12.97;;;6.40;99.90;;;;;;4898767;29;20454;-69
2023/03/05 01:01:08;;;;;;;21.70;14.07;;;6.40;99.90;;;;;;4918697;29;20249;-69
2023/03/05 01:03:35;;;;;;;31.30;22.60;;;6.40;99.90;;;;;;4924303;29;20214;-69
2023/03/05 01:06:03;;;;;;;36.07;26.70;;;6.40;99.90;;;;;;4924400;29;20471;-69
2023/03/05 01:08:29;;;;;;;35.60;26.60;;;6.40;99.90;;;;;;4922156;29;20462;-69
2023/03/05 01:10:55;;;;;;;35.93;27.30;;;6.40;99.90;;;;;;4923053;29;20981;-69
2023/03/05 01:13:21;;;;;;;37.80;24.20;;;6.40;99.90;;;;;;4942046;28;20241;-69
2023/03/05 01:15:49;;;;;;;27.23;19.67;;;6.40;99.90;;;;;;4923152;29;20517;-70
2023/03/05 01:18:16;;;;;;;32.60;17.70;;;6.40;99.90;;;;;;4900276;29;20542;-69
2023/03/05 01:20:42;;;;;;;34.43;22.07;;;6.40;99.90;;;;;;4897302;29;20546;-69
2023/03/05 01:23:08;;;;;;;36.17;23.20;;;6.40;99.90;;;;;;4906819;29;20470;-69
2023/03/05 01:25:34;;;;;;;25.50;17.13;;;6.40;99.90;;;;;;4915269;29;20569;-69
2023/03/05 01:28:00;;;;;;;20.97;15.50;;;6.40;99.90;;;;;;4922300;29;20534;-69
2023/03/05 01:30:26;;;;;;;21.10;13.60;;;6.40;99.90;;;;;;4897108;29;20219;-69
2023/03/05 01:32:52;;;;;;;21.87;12.70;;;6.40;99.90;;;;;;4918630;29;20462;-70
2023/03/05 01:35:20;;;;;;;14.00;9.87;;;6.40;99.90;;;;;;4909114;29;20231;-69
2023/03/05 01:37:46;;;;;;;17.20;10.77;;;6.40;99.90;;;;;;4908117;29;20471;-70
2023/03/05 01:40:16;;;;;;;17.90;10.10;;;6.40;99.90;;;;;;4902660;29;20502;-68
2023/03/05 01:42:48;;;;;;;16.43;9.90;;;6.40;99.90;;;;;;4909915;29;20222;-69
2023/03/05 01:45:17;;;;;;;14.90;8.50;;;6.30;99.90;;;;;;4904223;29;20482;-69
2023/03/05 01:47:43;;;;;;;14.87;8.67;;;6.30;99.90;;;;;;4936452;28;20472;-69
2023/03/05 01:50:17;;;;;;;12.03;7.73;;;6.30;99.90;;;;;;4951329;28;20973;-69
2023/03/05 01:52:48;;;;;;;15.93;8.40;;;6.30;99.90;;;;;;4912876;29;20460;-69
2023/03/05 01:55:19;;;;;;;15.93;8.50;;;6.30;99.90;;;;;;4927307;28;20469;-69
2023/03/05 01:58:08;;;;;;;12.50;7.53;;;6.30;99.90;;;;;;4907533;29;20471;-69
2023/03/05 02:00:38;;;;;;;14.00;8.20;;;6.30;99.90;;;;;;4918036;28;20475;-69
2023/03/05 02:03:06;;;;;;;12.27;6.77;;;6.30;99.90;;;;;;4933146;28;20467;-69
2023/03/05 02:05:35;;;;;;;12.23;7.53;;;6.30;99.90;;;;;;4931718;28;20495;-69
2023/03/05 02:08:03;;;;;;;14.73;8.10;;;6.20;99.90;;;;;;4923672;29;20463;-69
2023/03/05 02:10:38;;;;;;;15.77;8.10;;;6.20;99.90;;;;;;4899337;29;20505;-71
2023/03/05 02:13:07;;;;;;;16.50;8.10;;;6.20;99.90;;;;;;4914697;29;20472;-69
2023/03/05 02:15:34;;;;;;;14.07;8.93;;;6.30;99.90;;;;;;4923454;29;20503;-69
2023/03/05 02:18:00;;;;;;;13.27;8.43;;;6.20;99.90;;;;;;4920336;29;20486;-69
2023/03/05 02:20:28;;;;;;;12.10;8.87;;;6.20;99.90;;;;;;4916129;29;20458;-69
2023/03/05 02:22:54;;;;;;;9.90;7.10;;;6.20;99.90;;;;;;4933756;28;20978;-69
2023/03/05 02:25:23;;;;;;;13.63;7.80;;;6.20;99.90;;;;;;4924685;29;20539;-70
2023/03/05 02:28:20;;;;;;;13.70;8.80;;;6.20;99.90;;;;;;4913857;29;20220;-69
2023/03/05 02:30:46;;;;;;;10.97;6.47;;;6.30;99.90;;;;;;4939495;28;20994;-70
2023/03/05 02:33:15;;;;;;;10.03;7.60;;;6.30;99.90;;;;;;4916408;29;20478;-69
2023/03/05 02:35:45;;;;;;;13.47;8.10;;;6.30;99.90;;;;;;4909526;29;20231;-69
2023/03/05 02:38:13;;;;;;;12.87;7.00;;;6.30;99.90;;;;;;4927285;29;20478;-69
2023/03/05 02:40:38;;;;;;;13.13;8.00;;;6.30;99.90;;;;;;4921288;28;20468;-68
2023/03/05 02:43:06;;;;;;;13.87;8.47;;;6.30;99.90;;;;;;4945319;28;20466;-70
2023/03/05 02:45:33;;;;;;;9.90;6.57;;;6.30;99.90;;;;;;4921826;29;20227;-69
2023/03/05 02:47:58;;;;;;;14.23;8.07;;;6.20;99.90;;;;;;4921568;28;20451;-68
2023/03/05 02:50:26;;;;;;;15.07;7.60;;;6.20;99.90;;;;;;4908647;29;20215;-70
2023/03/05 02:52:52;;;;;;;13.43;7.10;;;6.30;99.90;;;;;;4916986;29;20229;-69
2023/03/05 02:55:19;;;;;;;18.40;7.67;;;6.30;99.90;;;;;;4917397;29;20578;-69
2023/03/05 02:57:45;;;;;;;9.20;6.93;;;6.30;99.90;;;;;;4907147;28;20543;-69
2023/03/05 03:00:11;;;;;;;17.60;8.57;;;6.30;99.90;;;;;;4928141;29;20223;-69
2023/03/05 03:02:37;;;;;;;11.23;6.77;;;6.30;99.90;;;;;;4925704;28;20214;-69
2023/03/05 03:05:04;;;;;;;14.80;7.80;;;6.30;99.90;;;;;;4926455;28;20527;-69
2023/03/05 03:07:29;;;;;;;14.37;7.13;;;6.30;99.90;;;;;;4901516;29;20555;-70
2023/03/05 03:09:55;;;;;;;12.23;7.17;;;6.30;99.90;;;;;;4940988;28;20486;-69
2023/03/05 03:12:21;;;;;;;12.60;6.63;;;6.30;99.90;;;;;;4919560;29;20310;-69
2023/03/05 03:14:47;;;;;;;11.40;6.80;;;6.30;99.90;;;;;;4920823;29;20585;-69
2023/03/05 03:17:15;;;;;;;18.17;7.57;;;6.30;99.90;;;;;;4930439;28;20486;-69
2023/03/05 03:19:41;;;;;;;15.37;7.80;;;6.20;99.90;;;;;;4934055;28;20218;-69
2023/03/05 03:22:08;;;;;;;14.83;7.13;;;6.20;99.90;;;;;;4915005;29;20483;-69
2023/03/05 03:24:35;;;;;;;17.23;7.97;;;6.20;99.90;;;;;;4911625;29;20511;-69
2023/03/05 03:27:01;;;;;;;20.07;8.03;;;6.20;99.90;;;;;;4922574;29;20461;-69
2023/03/05 03:29:27;;;;;;;20.00;8.00;;;6.20;99.90;;;;;;4917296;28;20468;-69
2023/03/05 03:31:52;;;;;;;12.80;6.70;;;6.20;99.90;;;;;;4926501;29;20464;-70
2023/03/05 03:34:19;;;;;;;24.87;7.40;;;6.20;99.90;;;;;;4917430;29;20596;-69
2023/03/05 03:36:47;;;;;;;13.80;7.03;;;6.20;99.90;;;;;;4917209;29;20250;-69
2023/03/05 03:39:13;;;;;;;15.63;7.40;;;6.20;99.90;;;;;;4912534;29;20498;-69
2023/03/05 03:41:45;;;;;;;9.80;5.73;;;6.20;99.90;;;;;;4915428;29;20550;-69
2023/03/05 03:44:12;;;;;;;12.17;6.97;;;6.20;99.90;;;;;;4900806;29;20982;-68
2023/03/05 03:46:39;;;;;;;15.23;6.73;;;6.20;99.90;;;;;;4905330;29;20467;-69
2023/03/05 03:49:06;;;;;;;15.00;7.00;;;6.10;99.90;;;;;;4932745;28;20462;-69
2023/03/05 03:51:32;;;;;;;15.27;6.70;;;6.10;99.90;;;;;;4914392;29;20475;-69
2023/03/05 03:53:59;;;;;;;12.37;6.17;;;6.10;99.90;;;;;;4911785;29;20452;-69
2023/03/05 03:56:25;;;;;;;14.60;7.37;;;6.20;99.90;;;;;;4910022;29;20212;-69
2023/03/05 03:58:51;;;;;;;11.83;6.70;;;6.20;99.90;;;;;;4923375;28;20461;-70
2023/03/05 04:01:19;;;;;;;8.63;5.80;;;6.20;99.90;;;;;;4926093;28;20554;-68
2023/03/05 04:03:45;;;;;;;13.33;7.03;;;6.20;99.90;;;;;;4920781;28;21012;-69
2023/03/05 04:06:10;;;;;;;10.47;6.30;;;6.20;99.90;;;;;;4928249;28;20472;-69
2023/03/05 04:08:36;;;;;;;12.33;6.20;;;6.20;99.90;;;;;;4914537;28;20208;-69
2023/03/05 04:11:02;;;;;;;11.63;6.10;;;6.20;99.90;;;;;;4917921;29;20518;-69
2023/03/05 04:13:28;;;;;;;22.07;6.87;;;6.00;99.90;;;;;;4894714;29;20219;-70
2023/03/05 04:15:54;;;;;;;7.80;5.30;;;6.10;99.90;;;;;;4921076;29;20219;-69
2023/03/05 04:18:20;;;;;;;12.57;6.90;;;6.20;99.90;;;;;;4904460;29;20211;-69
2023/03/05 04:20:46;;;;;;;12.63;5.87;;;6.20;99.90;;;;;;4934280;28;20851;-69
2023/03/05 04:23:11;;;;;;;8.23;6.57;;;6.20;99.90;;;;;;4924652;29;20243;-69
2023/03/05 04:25:37;;;;;;;9.87;5.57;;;6.10;99.90;;;;;;4909826;29;20232;-69
2023/03/05 04:28:03;;;;;;;8.57;5.40;;;6.00;99.90;;;;;;4916885;29;20254;-70
2023/03/05 04:30:30;;;;;;;14.80;6.87;;;6.10;99.90;;;;;;4933195;28;20220;-70
2023/03/05 04:32:56;;;;;;;14.97;7.00;;;6.10;99.90;;;;;;4915042;29;20468;-70
2023/03/05 04:35:22;;;;;;;8.33;5.87;;;6.10;99.90;;;;;;4918911;29;20851;-69
2023/03/05 04:37:48;;;;;;;12.27;6.03;;;6.10;99.90;;;;;;4909810;29;20226;-70
2023/03/05 04:40:14;;;;;;;15.07;6.43;;;6.10;99.90;;;;;;4918346;29;20471;-69
2023/03/05 04:42:39;;;;;;;12.23;5.37;;;6.10;99.90;;;;;;4923885;28;20845;-69
2023/03/05 04:45:06;;;;;;;12.40;4.97;;;6.00;99.90;;;;;;4919710;29;20486;-70
2023/03/05 04:47:32;;;;;;;12.93;5.10;;;6.00;99.90;;;;;;4913817;28;20215;-70
2023/03/05 04:49:58;;;;;;;9.60;4.30;;;6.00;99.90;;;;;;4941376;28;20458;-69
2023/03/05 04:52:24;;;;;;;8.10;5.00;;;6.00;99.90;;;;;;4902859;29;20875;-70
2023/03/05 04:54:49;;;;;;;8.83;5.37;;;5.90;99.90;;;;;;4928176;29;20681;-69
2023/03/05 04:57:15;;;;;;;8.43;4.87;;;5.80;99.90;;;;;;4913348;29;20313;-70
2023/03/05 04:59:41;;;;;;;8.43;4.80;;;5.90;99.90;;;;;;4925841;28;20211;-69
2023/03/05 05:02:07;;;;;;;8.33;4.60;;;5.90;99.90;;;;;;4922927;29;20482;-70
2023/03/05 05:04:34;;;;;;;14.30;5.47;;;5.90;99.90;;;;;;4892342;29;20220;-70
2023/03/05 05:07:01;;;;;;;8.80;4.87;;;6.00;99.90;;;;;;4919032;29;20212;-69
2023/03/05 05:09:26;;;;;;;12.67;5.13;;;6.00;99.90;;;;;;4923262;28;20494;-69
2023/03/05 05:11:53;;;;;;;10.23;5.40;;;5.90;99.90;;;;;;4920511;29;20460;-70
2023/03/05 05:14:19;;;;;;;10.23;4.40;;;5.90;99.90;;;;;;4929303;29;20231;-69
2023/03/05 05:16:45;;;;;;;8.63;4.67;;;5.90;99.90;;;;;;4922377;28;20442;-69
2023/03/05 05:19:11;;;;;;;6.90;4.33;;;5.80;99.90;;;;;;4925764;29;20462;-70
2023/03/05 05:21:36;;;;;;;6.17;4.00;;;5.80;99.90;;;;;;4929542;28;20226;-70
2023/03/05 05:24:02;;;;;;;6.67;4.77;;;5.90;99.90;;;;;;4928632;29;20211;-70
2023/03/05 05:26:28;;;;;;;16.93;5.30;;;5.90;99.90;;;;;;4912046;29;20462;-70
2023/03/05 05:28:54;;;;;;;9.53;4.30;;;5.90;99.90;;;;;;4915769;29;20220;-70
2023/03/05 05:31:20;;;;;;;9.67;4.90;;;5.90;99.90;;;;;;4910297;29;20636;-69
2023/03/05 05:33:46;;;;;;;5.77;3.90;;;5.80;99.90;;;;;;4918634;29;20215;-69
2023/03/05 05:36:14;;;;;;;7.20;4.73;;;5.80;99.90;;;;;;4919772;28;20471;-70
2023/03/05 05:38:40;;;;;;;8.37;4.93;;;5.80;99.90;;;;;;4923675;28;20223;-69
2023/03/05 05:41:09;;;;;;;11.90;4.50;;;5.70;99.90;;;;;;4932147;29;20466;-70
2023/03/05 05:43:35;;;;;;;7.50;4.33;;;5.70;99.90;;;;;;4924095;28;20454;-70
2023/03/05 05:46:02;;;;;;;8.87;5.03;;;5.70;99.90;;;;;;4918504;29;20482;-70
2023/03/05 05:48:30;;;;;;;19.67;6.00;;;5.70;99.90;;;;;;4910808;29;20222;-69
2023/03/05 05:50:56;;;;;;;10.07;4.30;;;5.70;99.90;;;;;;4925974;29;20460;-68
2023/03/05 05:53:22;;;;;;;5.20;4.37;;;5.60;99.90;;;;;;4925873;29;20892;-68
2023/03/05 05:55:47;;;;;;;7.23;4.60;;;5.70;99.90;;;;;;4928651;29;20455;-69
2023/03/05 05:58:13;;;;;;;7.70;4.87;;;5.70;99.90;;;;;;4924012;29;20648;-69
2023/03/05 06:00:39;;;;;;;7.80;4.50;;;5.80;99.90;;;;;;4941446;28;20223;-68
2023/03/05 06:03:04;;;;;;;13.80;4.97;;;5.80;99.90;;;;;;4927495;29;20249;-69
2023/03/05 06:05:30;;;;;;;10.23;4.90;;;5.70;99.90;;;;;;4938718;28;20309;-67
2023/03/05 06:07:56;;;;;;;13.50;5.10;;;5.70;99.90;;;;;;4924251;28;20303;-70
2023/03/05 06:10:21;;;;;;;12.43;5.00;;;5.70;99.90;;;;;;4908889;29;20223;-69
2023/03/05 06:12:47;;;;;;;7.90;4.50;;;5.70;99.90;;;;;;4924188;29;20250;-69
2023/03/05 06:15:12;;;;;;;7.77;4.30;;;5.80;99.90;;;;;;4923401;29;20228;-69
2023/03/05 06:17:38;;;;;;;15.20;4.57;;;5.80;99.90;;;;;;4923193;29;20221;-69
2023/03/05 06:20:05;;;;;;;12.07;4.80;;;5.70;99.90;;;;;;4923020;29;20222;-68
2023/03/05 06:22:34;;;;;;;9.73;4.67;;;5.70;99.90;;;;;;4922959;29;20234;-69
2023/03/05 06:25:00;;;;;;;6.53;4.27;;;5.70;99.90;;;;;;4933879;29;20486;-69
2023/03/05 06:27:25;;;;;;;10.33;4.73;;;5.70;99.90;;;;;;4922251;29;20482;-68
2023/03/05 06:29:52;;;;;;;5.60;3.73;;;5.70;99.90;;;;;;4924758;28;20286;-69
2023/03/05 06:32:18;;;;;;;7.27;3.97;;;5.70;99.90;;;;;;4920378;29;20227;-68
2023/03/05 06:34:44;;;;;;;6.83;4.73;;;5.60;99.90;;;;;;4944260;28;20454;-69
2023/03/05 06:37:10;;;;;;;7.03;4.50;;;5.70;99.90;;;;;;4921065;29;20298;-69
2023/03/05 06:39:35;;;;;;;5.93;4.03;;;5.70;99.90;;;;;;4946710;28;20228;-69
2023/03/05 06:42:01;;;;;;;7.27;3.90;;;5.70;99.90;;;;;;4930670;29;20226;-68
2023/03/05 06:44:27;;;;;;;8.33;3.73;;;5.70;99.90;;;;;;4927781;29;20309;-69
2023/03/05 06:46:52;;;;;;;6.33;4.83;;;5.70;99.90;;;;;;4925010;29;20275;-69
2023/03/05 06:49:18;;;;;;;8.80;4.17;;;5.70;99.90;;;;;;4920451;29;20613;-70
2023/03/05 06:51:44;;;;;;;6.20;4.43;;;5.60;99.90;;;;;;4946789;28;20647;-70
2023/03/05 06:54:12;;;;;;;6.07;4.37;;;5.60;99.90;;;;;;4923051;29;20231;-70
2023/03/05 06:56:40;;;;;;;8.27;4.83;;;5.60;99.90;;;;;;4925309;28;20220;-69
2023/03/05 06:59:06;;;;;;;11.23;4.17;;;5.70;99.90;;;;;;4951190;28;20547;-70
2023/03/05 07:01:32;;;;;;;6.50;4.17;;;5.70;99.90;;;;;;4924694;28;20478;-69
2023/03/05 07:03:59;;;;;;;7.43;4.40;;;5.60;99.90;;;;;;4935338;28;20466;-69
2023/03/05 07:06:28;;;;;;;4.30;3.40;;;5.60;99.90;;;;;;4929191;28;20454;-69
2023/03/05 07:09:00;;;;;;;8.70;4.23;;;5.60;99.90;;;;;;4928717;29;20514;-69
2023/03/05 07:11:26;;;;;;;9.10;3.97;;;5.60;99.90;;;;;;4926004;29;20479;-70
2023/03/05 07:13:52;;;;;;;11.17;4.50;;;5.60;99.90;;;;;;4923396;29;20451;-70
2023/03/05 07:16:21;;;;;;;11.10;3.80;;;5.60;99.90;;;;;;4923807;29;20455;-69
2023/03/05 07:18:47;;;;;;;7.47;3.67;;;5.40;99.90;;;;;;4945494;28;20219;-70
2023/03/05 07:21:26;;;;;;;7.60;5.10;;;5.50;99.90;;;;;;4926222;29;20463;-70
2023/03/05 07:23:56;;;;;;;10.87;4.10;;;5.60;99.90;;;;;;4932941;29;20510;-69
2023/03/05 07:26:22;;;;;;;10.80;4.43;;;5.50;99.90;;;;;;4933348;29;20547;-70
2023/03/05 07:28:48;;;;;;;5.33;3.63;;;5.60;99.90;;;;;;4910145;29;20531;-70
2023/03/05 07:31:19;;;;;;;4.50;2.90;;;5.60;99.90;;;;;;4924992;29;20271;-69
2023/03/05 07:33:49;;;;;;;7.50;2.57;;;5.60;99.90;;;;;;4917981;29;20216;-71
2023/03/05 07:36:16;;;;;;;7.40;3.53;;;5.60;99.90;;;;;;4909538;29;20458;-70
2023/03/05 07:38:42;;;;;;;7.63;3.80;;;5.60;99.90;;;;;;4921162;29;20487;-69
2023/03/05 07:41:20;;;;;;;10.27;3.70;;;5.60;99.90;;;;;;4915314;29;20490;-70
2023/03/05 07:43:49;;;;;;;6.80;4.17;;;5.60;99.90;;;;;;4922878;29;20318;-69
2023/03/05 07:46:17;;;;;;;5.43;2.90;;;5.60;99.90;;;;;;4935516;29;20478;-70
2023/03/05 07:48:42;;;;;;;4.40;2.57;;;5.60;99.90;;;;;;4924484;28;20517;-69
2023/03/05 07:51:17;;;;;;;5.83;2.83;;;5.60;99.90;;;;;;4917643;29;20542;-70
2023/03/05 07:53:43;;;;;;;4.80;2.30;;;5.60;99.90;;;;;;4923309;29;20368;-70
2023/03/05 07:56:09;;;;;;;6.23;2.80;;;5.60;99.90;;;;;;4935145;28;21075;-70
2023/03/05 07:58:35;;;;;;;8.20;3.27;;;5.60;99.90;;;;;;4925994;29;20542;-70
2023/03/05 08:01:01;;;;;;;5.07;2.70;;;5.60;99.90;;;;;;4919366;29;20466;-70
2023/03/05 08:03:27;;;;;;;3.87;2.30;;;5.60;99.90;;;;;;4924186;28;20455;-69
2023/03/05 08:05:53;;;;;;;3.27;2.63;;;5.70;99.90;;;;;;4930010;29;20576;-70
2023/03/05 08:08:18;;;;;;;2.50;2.20;;;5.60;99.90;;;;;;4927506;29;20764;-70
2023/03/05 08:10:44;;;;;;;5.20;2.17;;;5.60;99.90;;;;;;4921196;29;20774;-69
2023/03/05 08:13:10;;;;;;;5.53;2.07;;;5.70;99.90;;;;;;4929943;28;20238;-69
2023/03/05 08:15:37;;;;;;;8.30;2.47;;;5.60;99.90;;;;;;4919961;28;20223;-69
2023/03/05 08:18:03;;;;;;;7.07;2.90;;;5.70;99.90;;;;;;4929269;29;20697;-70
2023/03/05 08:20:28;;;;;;;9.50;4.07;;;5.60;99.90;;;;;;4921579;28;20546;-70
2023/03/05 08:22:54;;;;;;;5.77;4.40;;;5.60;99.90;;;;;;4922126;28;20535;-70
2023/03/05 08:25:20;;;;;;;8.77;3.40;;;5.60;99.90;;;;;;4922066;29;20594;-69
2023/03/05 08:27:47;;;;;;;6.53;2.57;;;5.70;99.90;;;;;;4930780;28;20226;-69
2023/03/05 08:30:16;;;;;;;13.33;5.57;;;5.70;99.90;;;;;;4947388;28;20465;-69
2023/03/05 08:32:42;;;;;;;9.37;4.97;;;5.70;99.90;;;;;;4918213;29;20453;-70
2023/03/05 08:35:08;;;;;;;6.77;3.30;;;5.70;99.90;;;;;;4933034;29;20463;-70
2023/03/05 08:37:35;;;;;;;7.53;3.57;;;5.70;99.90;;;;;;4925048;29;20249;-70
2023/03/05 08:40:01;;;;;;;4.20;3.63;;;5.80;99.90;;;;;;4934040;28;20540;-69
2023/03/05 08:42:26;;;;;;;7.13;3.37;;;5.70;99.90;;;;;;4913434;29;20555;-70
2023/03/05 08:44:52;;;;;;;6.40;2.87;;;5.70;99.90;;;;;;4918888;29;20264;-69
2023/03/05 08:47:19;;;;;;;4.03;2.13;;;5.70;99.90;;;;;;4917630;29;20221;-70
2023/03/05 08:49:45;;;;;;;8.57;3.37;;;5.80;99.90;;;;;;4929217;29;20224;-69
2023/03/05 08:52:11;;;;;;;5.47;2.83;;;5.80;99.90;;;;;;4916195;29;20827;-69
2023/03/05 08:54:37;;;;;;;8.70;3.30;;;5.80;99.90;;;;;;4930226;29;20465;-68
2023/03/05 08:57:03;;;;;;;4.83;2.93;;;5.90;99.90;;;;;;4922103;29;20219;-69
2023/03/05 08:59:29;;;;;;;6.10;3.10;;;5.90;99.90;;;;;;4924952;28;20600;-69
2023/03/05 09:01:54;;;;;;;9.60;3.23;;;5.80;99.90;;;;;;4926625;29;20273;-69
2023/03/05 09:04:20;;;;;;;9.10;3.83;;;5.90;99.90;;;;;;4929310;29;20229;-68
2023/03/05 09:06:46;;;;;;;8.93;4.73;;;5.80;99.90;;;;;;4942883;28;20955;-69
2023/03/05 09:09:12;;;;;;;10.43;4.67;;;5.90;99.90;;;;;;4925360;29;20222;-70
2023/03/05 09:11:38;;;;;;;6.00;3.80;;;5.90;99.90;;;;;;4929403;28;20227;-70
2023/03/05 09:14:06;;;;;;;10.93;4.27;;;5.90;99.90;;;;;;4926841;29;20531;-70
2023/03/05 09:16:32;;;;;;;6.50;3.70;;;5.90;99.90;;;;;;4924852;29;20210;-70
2023/03/05 09:18:58;;;;;;;10.10;3.47;;;5.90;99.90;;;;;;4924754;29;20443;-70
2023/03/05 09:21:25;;;;;;;5.03;2.93;;;5.90;99.90;;;;;;4926766;29;20528;-70
2023/03/05 09:23:51;;;;;;;9.10;3.73;;;5.90;99.90;;;;;;4925166;28;21050;-70
2023/03/05 09:26:20;;;;;;;4.13;2.63;;;5.90;99.90;;;;;;4923182;29;20479;-70
2023/03/05 09:28:46;;;;;;;7.80;3.50;;;5.90;99.90;;;;;;4927306;29;20450;-70
2023/03/05 09:31:12;;;;;;;6.70;3.50;;;5.80;99.90;;;;;;4926052;28;20477;-70
2023/03/05 09:33:38;;;;;;;5.03;2.90;;;5.70;99.90;;;;;;4923513;28;20510;-70
2023/03/05 09:36:15;;;;;;;6.23;3.60;;;5.70;99.90;;;;;;4922734;28;20484;-70
2023/03/05 09:38:41;;;;;;;6.30;2.67;;;5.70;99.90;;;;;;4919015;29;20471;-69
2023/03/05 09:41:14;;;;;;;4.73;2.13;;;5.80;99.90;;;;;;4918158;29;20511;-70
2023/03/05 09:43:55;;;;;;;6.17;2.10;;;5.80;99.90;;;;;;4950256;28;20454;-69
2023/03/05 09:46:30;;;;;;;4.80;2.50;;;5.80;99.90;;;;;;4921649;29;20468;-70
2023/03/05 09:49:18;;;;;;;5.87;3.83;;;5.90;99.90;;;;;;4906698;29;20458;-70
2023/03/05 09:51:47;;;;;;;4.10;2.80;;;5.90;99.90;;;;;;4952824;28;20443;-70
2023/03/05 09:54:17;;;;;;;5.13;2.70;;;5.80;99.90;;;;;;4942601;28;20544;-70
2023/03/05 09:56:56;;;;;;;5.50;2.80;;;5.80;99.90;;;;;;4924525;29;20443;-69
2023/03/05 09:59:48;;;;;;;7.27;3.43;;;5.80;99.90;;;;;;4928125;29;20954;-70
2023/03/05 10:02:22;;;;;;;4.23;2.20;;;5.70;99.90;;;;;;4923102;29;20458;-69
2023/03/05 10:04:59;;;;;;;7.73;2.33;;;5.70;99.90;;;;;;4922009;28;20478;-70
2023/03/05 10:07:35;;;;;;;4.40;2.03;;;5.70;99.90;;;;;;4924532;28;21058;-69
2023/03/05 10:10:16;;;;;;;3.60;2.27;;;5.80;99.90;;;;;;4925555;29;20510;-69
2023/03/05 10:12:49;;;;;;;7.37;2.80;;;5.80;99.90;;;;;;4941529;28;24800;-69
2023/03/05 10:15:29;;;;;;;10.77;3.30;;;5.80;99.90;;;;;;4943973;28;20545;-70
2023/03/05 10:18:31;;;;;;;8.90;3.30;;;5.80;99.90;;;;;;4927345;29;20811;-70
2023/03/05 10:21:10;;;;;;;5.67;2.00;;;5.80;99.90;;;;;;4923469;28;20454;-70
2023/03/05 10:23:54;;;;;;;6.90;3.70;;;5.80;99.90;;;;;;4923239;28;20462;-70
2023/03/05 10:26:47;;;;;;;7.53;2.97;;;5.80;99.90;;;;;;4918706;29;20490;-69
2023/03/05 10:29:57;;;;;;;6.33;3.00;;;5.80;99.90;;;;;;4946300;28;20468;-70
2023/03/05 10:33:05;;;;;;;7.43;2.07;;;5.70;99.90;;;;;;4879676;29;20464;-69
2023/03/05 10:35:52;;;;;;;4.37;2.70;;;5.70;99.90;;;;;;4886988;29;20499;-69
2023/03/05 10:38:21;;;;;;;7.40;3.33;;;5.70;99.90;;;;;;4915744;29;20478;-70
2023/03/05 10:40:53;;;;;;;6.90;2.70;;;5.70;99.90;;;;;;4933933;29;20455;-70
2023/03/05 10:43:23;;;;;;;5.90;2.30;;;5.70;99.90;;;;;;4907679;29;20466;-68
2023/03/05 10:45:54;;;;;;;2.20;2.00;;;5.70;99.90;;;;;;4924837;29;20817;-70
2023/03/05 10:48:44;;;;;;;9.10;2.80;;;5.70;99.90;;;;;;4918462;29;20485;-70
2023/03/05 10:51:18;;;;;;;3.97;2.00;;;5.60;99.90;;;;;;4933488;29;20466;-70
2023/03/05 10:53:52;;;;;;;5.40;2.13;;;5.60;99.90;;;;;;4925918;29;20515;-70
2023/03/05 10:56:21;;;;;;;2.87;1.80;;;5.70;99.90;;;;;;4919982;29;20511;-70
2023/03/05 10:58:47;;;;;;;8.33;2.80;;;5.80;99.90;;;;;;4918706;28;20463;-70
2023/03/05 11:01:14;;;;;;;3.80;2.23;;;5.70;99.90;;;;;;4923628;29;20486;-70
2023/03/05 11:03:48;;;;;;;2.50;1.70;;;5.70;99.90;;;;;;4923291;29;20232;-69
2023/03/05 11:06:14;;;;;;;8.20;2.83;;;5.60;99.90;;;;;;4948477;28;20540;-70
2023/03/05 11:08:40;;;;;;;4.73;2.10;;;5.60;99.90;;;;;;4927846;28;20455;-68
2023/03/05 11:11:16;;;;;;;5.20;2.47;;;5.60;99.90;;;;;;4926814;29;21004;-69
2023/03/05 11:13:53;;;;;;;3.63;2.27;;;5.60;99.90;;;;;;4926353;29;20890;-69
2023/03/05 11:16:31;;;;;;;3.60;1.80;;;5.70;99.90;;;;;;4947290;28;20479;-69
2023/03/05 11:19:20;;;;;;;5.20;2.60;;;5.80;99.90;;;;;;4933394;29;20960;-70
2023/03/05 11:22:04;;;;;;;6.33;2.60;;;5.90;99.90;;;;;;4925424;28;20467;-71
2023/03/05 11:24:30;;;;;;;4.73;2.17;;;5.80;99.90;;;;;;4947499;28;20835;-70
2023/03/05 11:26:56;;;;;;;6.43;2.83;;;5.90;99.90;;;;;;4926297;29;20452;-69
2023/03/05 11:29:23;;;;;;;2.87;1.90;;;5.90;99.90;;;;;;4950245;28;20222;-70
2023/03/05 11:31:50;;;;;;;3.80;2.77;;;5.90;99.90;;;;;;4944659;28;20459;-70
2023/03/05 11:34:16;;;;;;;4.57;2.20;;;6.00;99.90;;;;;;4905541;29;20495;-70
2023/03/05 11:36:52;;;;;;;5.60;2.30;;;6.00;99.90;;;;;;4922146;29;20464;-69
2023/03/05 11:39:21;;;;;;;3.60;1.87;;;6.00;99.90;;;;;;4947602;28;20215;-70
2023/03/05 11:41:57;;;;;;;4.60;2.60;;;6.10;99.90;;;;;;4909003;29;20518;-69
2023/03/05 11:44:33;;;;;;;6.30;3.20;;;6.00;99.90;;;;;;4939717;28;20478;-69
2023/03/05 11:47:17;;;;;;;4.77;3.20;;;6.00;99.90;;;;;;4935628;28;20469;-70
2023/03/05 11:49:47;;;;;;;6.50;4.03;;;6.00;99.90;;;;;;4926521;28;20451;-69
2023/03/05 11:52:29;;;;;;;7.20;4.57;;;6.10;99.90;;;;;;4943264;28;20486;-70
2023/03/05 11:55:02;;;;;;;9.43;3.87;;;6.10;99.90;;;;;;4934273;28;20446;-70
2023/03/05 11:57:39;;;;;;;5.53;3.43;;;6.10;99.90;;;;;;4927112;28;20501;-69
2023/03/05 12:00:11;;;;;;;4.47;2.90;;;6.10;99.90;;;;;;4918443;28;20468;-70
2023/03/05 12:02:37;;;;;;;5.00;2.13;;;6.20;99.90;;;;;;4924493;29;20478;-69
2023/03/05 12:05:06;;;;;;;5.07;2.57;;;6.10;99.90;;;;;;4925171;29;20483;-70
2023/03/05 12:07:42;;;;;;;3.97;1.90;;;6.00;99.90;;;;;;4930801;28;20246;-69
2023/03/05 12:10:16;;;;;;;4.13;2.80;;;5.90;99.90;;;;;;4941330;28;20479;-69
2023/03/05 12:12:51;;;;;;;2.87;2.23;;;6.00;99.90;;;;;;4924149;28;20471;-69
2023/03/05 12:15:23;;;;;;;10.30;3.00;;;6.00;99.90;;;;;;4944141;28;20467;-70
2023/03/05 12:18:08;;;;;;;4.37;2.10;;;6.10;99.90;;;;;;4928604;29;20447;-70
2023/03/05 12:20:49;;;;;;;7.50;3.10;;;6.00;99.90;;;;;;4920853;29;20474;-70
2023/03/05 12:23:18;;;;;;;6.33;3.17;;;6.10;99.90;;;;;;4903169;29;20557;-69
2023/03/05 12:25:47;;;;;;;4.53;2.63;;;6.10;99.90;;;;;;4928389;28;20459;-69
2023/03/05 12:28:35;;;;;;;6.47;2.60;;;6.00;99.90;;;;;;4928778;29;20502;-69
2023/03/05 12:31:00;;;;;;;3.90;2.60;;;6.10;99.90;;;;;;4917312;29;20546;-70
2023/03/05 12:33:31;;;;;;;5.60;2.60;;;6.10;99.90;;;;;;4938027;28;20596;-68
2023/03/05 12:36:33;;;;;;;8.33;2.40;;;6.10;99.90;;;;;;4948932;28;20230;-69
2023/03/05 12:38:59;;;;;;;4.40;2.83;;;6.10;99.90;;;;;;4944141;28;20519;-69
2023/03/05 12:41:33;;;;;;;6.83;2.73;;;6.10;99.90;;;;;;4905253;29;20492;-70
2023/03/05 12:44:04;;;;;;;3.03;2.50;;;6.10;99.90;;;;;;4924133;29;20450;-70
2023/03/05 12:46:35;;;;;;;5.80;2.30;;;6.10;99.90;;;;;;4924387;29;20478;-68
2023/03/05 12:49:26;;;;;;;7.53;4.43;;;6.10;99.90;;;;;;4925668;28;20515;-69
2023/03/05 12:51:54;;;;;;;4.97;3.30;;;6.10;99.90;;;;;;4925041;29;20591;-70
2023/03/05 12:54:39;;;;;;;6.63;2.47;;;6.00;99.90;;;;;;4926572;28;20788;-68
2023/03/05 12:57:16;;;;;;;4.73;2.33;;;6.00;99.90;;;;;;4942768;28;20473;-69
2023/03/05 12:59:53;;;;;;;5.97;3.97;;;6.10;99.90;;;;;;4908636;29;20463;-71
2023/03/05 13:02:40;;;;;;;22.10;10.27;;;6.10;99.90;;;;;;4919550;29;20490;-70